Aérodrome :
LOGIN :

S'inscrire | Disclaimer

   EN    FR    IT 

 










Légende :    VFR   VFR Marginal   IFR   IFR Intensif   IFR Très Intensif
Visi : 
Plafond : 
>= 8 km
>= 3000ft
5 à 8 km
1000 à 3000 ft
1500m à 5 km
500 à 1000 ft
800 à 1500m
200 à 500 ft
< 800m
< 200 ft
Symboles :   Orages  Brouillard  Fortes neiges  Fortes précipitations  Vent > 20 kt
SIGMETs :   Divers  Orages  Givrage  Turbulence  Onde Orograph.  Cendres Volcan.







- Altitude de l'aérodrome : 179 ft


LIPI - Rivolto AFB Udine

DERNIER METAR :
  • 221355Z /////KT 9999 FEW050 26/15 Q1016 RMK SCT SCT200 VIS MIN 9999 WIND THR06 22005KT WIND THR24 24007KT BLU

METARs EXPIRÉS :
  • 221255Z /////KT CAVOK 26/16 Q1016 RMK SCT SCT200 VIS MIN 9999 WIND THR06 24004KT WIND THR24 23007KT BLU

TAF TAF LIPI
Valide du 22 à 12h jusqu'au 22 à 21h UTC


221100Z 2212/2221 VRB05KT CAVOK
TEMPO 2212/2221 9999 SCT040
PROB30
TEMPO 2217/2221 5000 TSRA FEW025CB SCT035
Pas de NOTAMs connus pour ce terrain.



MET'MAP, la Météo Aéronautique d'un coup d'oeil ! - Copyright ORBIFLY Décembre 2007 - Disclaimer

ORBIFLY MET'MAP TEAM :

Programmation & Développement : Alexandra Zaïnal
Conception & Développement : Baudouin d'Aumeries
Co-Programmation & Développement : Marc-Olivier Méhu
Soutien technique & logistique : Manuel Goepfert

Contact : metmap@orbifly.com




SOURCES & CREDITS :

   NOAA